sensor_id;sensor_type;location;lat;lon;timestamp;P1;durP1;ratioP1;P2;durP2;ratioP2
7444;SDS011;3764;48.126;11.594;2023-01-05T00:01:54;0.90;;;0.60;;
7444;SDS011;3764;48.126;11.594;2023-01-05T00:04:21;0.95;;;0.60;;
7444;SDS011;3764;48.126;11.594;2023-01-05T00:06:50;1.00;;;0.60;;
7444;SDS011;3764;48.126;11.594;2023-01-05T00:09:17;1.10;;;0.60;;
7444;SDS011;3764;48.126;11.594;2023-01-05T00:11:44;1.00;;;0.70;;
7444;SDS011;3764;48.126;11.594;2023-01-05T00:14:30;1.00;;;0.68;;
7444;SDS011;3764;48.126;11.594;2023-01-05T00:17:16;1.05;;;0.55;;
7444;SDS011;3764;48.126;11.594;2023-01-05T00:20:02;1.40;;;0.70;;
7444;SDS011;3764;48.126;11.594;2023-01-05T00:22:50;1.25;;;0.52;;
7444;SDS011;3764;48.126;11.594;2023-01-05T00:25:19;0.95;;;0.60;;
7444;SDS011;3764;48.126;11.594;2023-01-05T00:27:47;0.90;;;0.60;;
7444;SDS011;3764;48.126;11.594;2023-01-05T00:30:16;0.93;;;0.50;;
7444;SDS011;3764;48.126;11.594;2023-01-05T00:32:45;0.93;;;0.60;;
7444;SDS011;3764;48.126;11.594;2023-01-05T00:35:12;1.15;;;0.60;;
7444;SDS011;3764;48.126;11.594;2023-01-05T00:37:41;0.90;;;0.50;;
7444;SDS011;3764;48.126;11.594;2023-01-05T00:40:11;1.13;;;0.70;;
7444;SDS011;3764;48.126;11.594;2023-01-05T00:42:40;0.80;;;0.50;;
7444;SDS011;3764;48.126;11.594;2023-01-05T00:45:08;1.05;;;0.80;;
7444;SDS011;3764;48.126;11.594;2023-01-05T00:47:37;4.10;;;2.30;;
7444;SDS011;3764;48.126;11.594;2023-01-05T00:50:05;0.88;;;0.60;;
7444;SDS011;3764;48.126;11.594;2023-01-05T00:52:33;0.80;;;0.50;;
7444;SDS011;3764;48.126;11.594;2023-01-05T00:55:00;0.90;;;0.50;;
7444;SDS011;3764;48.126;11.594;2023-01-05T00:57:29;0.90;;;0.60;;
7444;SDS011;3764;48.126;11.594;2023-01-05T00:59:56;0.80;;;0.50;;
7444;SDS011;3764;48.126;11.594;2023-01-05T01:02:23;0.90;;;0.55;;
7444;SDS011;3764;48.126;11.594;2023-01-05T01:04:50;1.10;;;0.60;;
7444;SDS011;3764;48.126;11.594;2023-01-05T01:07:17;1.00;;;0.50;;
7444;SDS011;3764;48.126;11.594;2023-01-05T01:09:45;1.00;;;0.60;;
7444;SDS011;3764;48.126;11.594;2023-01-05T01:12:12;1.00;;;0.50;;
7444;SDS011;3764;48.126;11.594;2023-01-05T01:14:40;1.00;;;0.60;;
7444;SDS011;3764;48.126;11.594;2023-01-05T01:17:07;2.58;;;0.73;;
7444;SDS011;3764;48.126;11.594;2023-01-05T01:19:35;0.80;;;0.50;;
7444;SDS011;3764;48.126;11.594;2023-01-05T01:22:03;0.90;;;0.50;;
7444;SDS011;3764;48.126;11.594;2023-01-05T01:24:30;0.80;;;0.50;;
7444;SDS011;3764;48.126;11.594;2023-01-05T01:26:57;1.08;;;0.50;;
7444;SDS011;3764;48.126;11.594;2023-01-05T01:29:25;0.80;;;0.50;;
7444;SDS011;3764;48.126;11.594;2023-01-05T01:31:53;0.80;;;0.50;;
7444;SDS011;3764;48.126;11.594;2023-01-05T01:34:20;0.90;;;0.50;;
7444;SDS011;3764;48.126;11.594;2023-01-05T01:36:48;1.00;;;0.50;;
7444;SDS011;3764;48.126;11.594;2023-01-05T01:39:15;0.80;;;0.50;;
7444;SDS011;3764;48.126;11.594;2023-01-05T01:41:43;0.90;;;0.50;;
7444;SDS011;3764;48.126;11.594;2023-01-05T01:47:17;1.00;;;0.50;;
7444;SDS011;3764;48.126;11.594;2023-01-05T01:49:48;1.33;;;0.57;;
7444;SDS011;3764;48.126;11.594;2023-01-05T01:52:16;1.00;;;0.52;;
7444;SDS011;3764;48.126;11.594;2023-01-05T01:54:44;0.95;;;0.52;;
7444;SDS011;3764;48.126;11.594;2023-01-05T01:57:12;0.80;;;0.50;;
7444;SDS011;3764;48.126;11.594;2023-01-05T01:59:40;0.80;;;0.50;;
7444;SDS011;3764;48.126;11.594;2023-01-05T02:02:07;1.00;;;0.50;;
7444;SDS011;3764;48.126;11.594;2023-01-05T02:04:37;0.80;;;0.50;;
7444;SDS011;3764;48.126;11.594;2023-01-05T02:07:05;0.80;;;0.50;;
7444;SDS011;3764;48.126;11.594;2023-01-05T02:09:35;0.80;;;0.50;;
7444;SDS011;3764;48.126;11.594;2023-01-05T02:12:03;0.80;;;0.50;;
7444;SDS011;3764;48.126;11.594;2023-01-05T02:14:40;0.85;;;0.50;;
7444;SDS011;3764;48.126;11.594;2023-01-05T02:17:18;1.00;;;0.50;;
7444;SDS011;3764;48.126;11.594;2023-01-05T02:26:08;1.00;;;0.60;;
7444;SDS011;3764;48.126;11.594;2023-01-05T02:29:10;0.80;;;0.50;;
7444;SDS011;3764;48.126;11.594;2023-01-05T02:31:53;1.25;;;0.65;;
7444;SDS011;3764;48.126;11.594;2023-01-05T02:34:26;1.00;;;0.60;;
7444;SDS011;3764;48.126;11.594;2023-01-05T02:36:59;0.90;;;0.50;;
7444;SDS011;3764;48.126;11.594;2023-01-05T02:39:34;1.00;;;0.60;;
7444;SDS011;3764;48.126;11.594;2023-01-05T02:42:09;0.85;;;0.50;;
7444;SDS011;3764;48.126;11.594;2023-01-05T02:44:39;0.80;;;0.50;;
7444;SDS011;3764;48.126;11.594;2023-01-05T02:50:02;0.93;;;0.60;;
7444;SDS011;3764;48.126;11.594;2023-01-05T02:52:34;0.80;;;0.50;;
7444;SDS011;3764;48.126;11.594;2023-01-05T02:55:06;0.80;;;0.50;;
7444;SDS011;3764;48.126;11.594;2023-01-05T02:57:37;0.80;;;0.60;;
7444;SDS011;3764;48.126;11.594;2023-01-05T03:00:16;1.30;;;0.65;;
7444;SDS011;3764;48.126;11.594;2023-01-05T03:02:48;1.23;;;0.60;;
7444;SDS011;3764;48.126;11.594;2023-01-05T03:05:20;0.90;;;0.60;;
7444;SDS011;3764;48.126;11.594;2023-01-05T03:07:51;1.23;;;0.70;;
7444;SDS011;3764;48.126;11.594;2023-01-05T03:10:32;0.80;;;0.50;;
7444;SDS011;3764;48.126;11.594;2023-01-05T03:13:19;0.90;;;0.52;;
7444;SDS011;3764;48.126;11.594;2023-01-05T03:16:05;3.17;;;0.50;;
7444;SDS011;3764;48.126;11.594;2023-01-05T03:18:34;1.05;;;0.60;;
7444;SDS011;3764;48.126;11.594;2023-01-05T03:21:22;1.00;;;0.60;;
7444;SDS011;3764;48.126;11.594;2023-01-05T03:23:50;0.80;;;0.50;;
7444;SDS011;3764;48.126;11.594;2023-01-05T03:26:36;1.73;;;0.60;;
7444;SDS011;3764;48.126;11.594;2023-01-05T03:29:22;0.80;;;0.50;;
7444;SDS011;3764;48.126;11.594;2023-01-05T03:32:07;0.80;;;0.50;;
7444;SDS011;3764;48.126;11.594;2023-01-05T03:35:01;1.20;;;0.57;;
7444;SDS011;3764;48.126;11.594;2023-01-05T03:37:47;2.03;;;0.50;;
7444;SDS011;3764;48.126;11.594;2023-01-05T03:40:19;0.80;;;0.50;;
7444;SDS011;3764;48.126;11.594;2023-01-05T03:42:50;0.90;;;0.50;;
7444;SDS011;3764;48.126;11.594;2023-01-05T03:45:17;1.00;;;0.55;;
7444;SDS011;3764;48.126;11.594;2023-01-05T03:47:46;0.90;;;0.50;;
7444;SDS011;3764;48.126;11.594;2023-01-05T03:50:16;0.90;;;0.52;;
7444;SDS011;3764;48.126;11.594;2023-01-05T03:52:43;1.10;;;0.70;;
7444;SDS011;3764;48.126;11.594;2023-01-05T03:55:10;1.00;;;0.60;;
7444;SDS011;3764;48.126;11.594;2023-01-05T03:57:37;0.80;;;0.50;;
7444;SDS011;3764;48.126;11.594;2023-01-05T04:00:05;0.88;;;0.60;;
7444;SDS011;3764;48.126;11.594;2023-01-05T04:02:32;0.93;;;0.50;;
7444;SDS011;3764;48.126;11.594;2023-01-05T04:04:59;0.90;;;0.60;;
7444;SDS011;3764;48.126;11.594;2023-01-05T04:07:28;1.30;;;0.50;;
7444;SDS011;3764;48.126;11.594;2023-01-05T04:09:55;0.80;;;0.50;;
7444;SDS011;3764;48.126;11.594;2023-01-05T04:12:22;0.90;;;0.50;;
7444;SDS011;3764;48.126;11.594;2023-01-05T04:14:49;1.00;;;0.55;;
7444;SDS011;3764;48.126;11.594;2023-01-05T04:19:47;0.90;;;0.60;;
7444;SDS011;3764;48.126;11.594;2023-01-05T04:22:16;0.90;;;0.50;;
7444;SDS011;3764;48.126;11.594;2023-01-05T04:24:45;0.90;;;0.50;;
7444;SDS011;3764;48.126;11.594;2023-01-05T04:27:12;0.88;;;0.50;;
7444;SDS011;3764;48.126;11.594;2023-01-05T04:29:39;0.90;;;0.55;;
7444;SDS011;3764;48.126;11.594;2023-01-05T04:32:06;0.95;;;0.50;;
7444;SDS011;3764;48.126;11.594;2023-01-05T04:34:33;0.90;;;0.50;;
7444;SDS011;3764;48.126;11.594;2023-01-05T04:37:00;1.10;;;0.60;;
7444;SDS011;3764;48.126;11.594;2023-01-05T04:39:27;1.00;;;0.60;;
7444;SDS011;3764;48.126;11.594;2023-01-05T04:41:56;0.90;;;0.50;;
7444;SDS011;3764;48.126;11.594;2023-01-05T04:44:23;0.90;;;0.60;;
7444;SDS011;3764;48.126;11.594;2023-01-05T04:46:50;0.90;;;0.50;;
7444;SDS011;3764;48.126;11.594;2023-01-05T04:49:17;0.90;;;0.60;;
7444;SDS011;3764;48.126;11.594;2023-01-05T04:51:44;0.90;;;0.50;;
7444;SDS011;3764;48.126;11.594;2023-01-05T04:54:11;1.40;;;0.68;;
7444;SDS011;3764;48.126;11.594;2023-01-05T04:56:38;1.00;;;0.60;;
7444;SDS011;3764;48.126;11.594;2023-01-05T04:59:07;1.00;;;0.60;;
7444;SDS011;3764;48.126;11.594;2023-01-05T05:01:34;1.00;;;0.60;;
7444;SDS011;3764;48.126;11.594;2023-01-05T05:04:01;0.93;;;0.60;;
7444;SDS011;3764;48.126;11.594;2023-01-05T05:06:28;1.00;;;0.60;;
7444;SDS011;3764;48.126;11.594;2023-01-05T05:08:55;2.13;;;0.70;;
7444;SDS011;3764;48.126;11.594;2023-01-05T05:11:22;1.02;;;0.60;;
7444;SDS011;3764;48.126;11.594;2023-01-05T05:13:49;0.90;;;0.60;;
7444;SDS011;3764;48.126;11.594;2023-01-05T05:16:18;1.00;;;0.60;;
7444;SDS011;3764;48.126;11.594;2023-01-05T05:18:45;0.90;;;0.57;;
7444;SDS011;3764;48.126;11.594;2023-01-05T05:21:12;1.00;;;0.60;;
7444;SDS011;3764;48.126;11.594;2023-01-05T05:23:39;1.17;;;0.60;;
7444;SDS011;3764;48.126;11.594;2023-01-05T05:26:06;1.10;;;0.60;;
7444;SDS011;3764;48.126;11.594;2023-01-05T05:28:33;1.00;;;0.70;;
7444;SDS011;3764;48.126;11.594;2023-01-05T05:31:00;3.50;;;0.60;;
7444;SDS011;3764;48.126;11.594;2023-01-05T05:33:29;0.90;;;0.60;;
7444;SDS011;3764;48.126;11.594;2023-01-05T05:35:56;0.90;;;0.50;;
7444;SDS011;3764;48.126;11.594;2023-01-05T05:38:23;0.90;;;0.50;;
7444;SDS011;3764;48.126;11.594;2023-01-05T05:40:50;1.75;;;0.75;;
7444;SDS011;3764;48.126;11.594;2023-01-05T05:43:17;0.90;;;0.50;;
7444;SDS011;3764;48.126;11.594;2023-01-05T05:45:44;1.10;;;0.55;;
7444;SDS011;3764;48.126;11.594;2023-01-05T05:48:11;0.90;;;0.68;;
7444;SDS011;3764;48.126;11.594;2023-01-05T05:50:40;0.90;;;0.50;;
7444;SDS011;3764;48.126;11.594;2023-01-05T05:53:07;0.90;;;0.60;;
7444;SDS011;3764;48.126;11.594;2023-01-05T05:55:34;0.90;;;0.52;;
7444;SDS011;3764;48.126;11.594;2023-01-05T05:58:01;1.33;;;0.70;;
7444;SDS011;3764;48.126;11.594;2023-01-05T06:00:28;1.00;;;0.63;;
7444;SDS011;3764;48.126;11.594;2023-01-05T06:02:55;0.98;;;0.63;;
7444;SDS011;3764;48.126;11.594;2023-01-05T06:05:22;0.90;;;0.60;;
7444;SDS011;3764;48.126;11.594;2023-01-05T06:07:51;1.00;;;0.68;;
7444;SDS011;3764;48.126;11.594;2023-01-05T06:10:18;1.15;;;0.70;;
7444;SDS011;3764;48.126;11.594;2023-01-05T06:12:45;1.02;;;0.60;;
7444;SDS011;3764;48.126;11.594;2023-01-05T06:15:12;0.90;;;0.60;;
7444;SDS011;3764;48.126;11.594;2023-01-05T06:17:39;1.10;;;0.65;;
7444;SDS011;3764;48.126;11.594;2023-01-05T06:20:07;1.25;;;0.60;;
7444;SDS011;3764;48.126;11.594;2023-01-05T06:22:34;1.10;;;0.60;;
7444;SDS011;3764;48.126;11.594;2023-01-05T06:25:03;2.65;;;0.65;;
7444;SDS011;3764;48.126;11.594;2023-01-05T06:27:31;1.15;;;0.70;;
7444;SDS011;3764;48.126;11.594;2023-01-05T06:29:58;1.42;;;1.00;;
7444;SDS011;3764;48.126;11.594;2023-01-05T06:32:25;0.90;;;0.68;;
7444;SDS011;3764;48.126;11.594;2023-01-05T06:34:52;0.90;;;0.50;;
7444;SDS011;3764;48.126;11.594;2023-01-05T06:37:19;1.00;;;0.70;;
7444;SDS011;3764;48.126;11.594;2023-01-05T06:39:46;1.20;;;0.70;;
7444;SDS011;3764;48.126;11.594;2023-01-05T06:42:15;1.10;;;0.63;;
7444;SDS011;3764;48.126;11.594;2023-01-05T06:44:42;0.90;;;0.60;;
7444;SDS011;3764;48.126;11.594;2023-01-05T06:47:09;1.00;;;0.60;;
7444;SDS011;3764;48.126;11.594;2023-01-05T06:49:36;0.90;;;0.50;;
7444;SDS011;3764;48.126;11.594;2023-01-05T06:52:03;1.00;;;0.60;;
7444;SDS011;3764;48.126;11.594;2023-01-05T06:54:30;2.08;;;0.68;;
7444;SDS011;3764;48.126;11.594;2023-01-05T06:56:57;1.02;;;0.60;;
7444;SDS011;3764;48.126;11.594;2023-01-05T06:59:26;1.25;;;0.60;;
7444;SDS011;3764;48.126;11.594;2023-01-05T07:01:53;1.65;;;0.60;;
7444;SDS011;3764;48.126;11.594;2023-01-05T07:04:20;1.27;;;0.60;;
7444;SDS011;3764;48.126;11.594;2023-01-05T07:06:47;1.05;;;0.60;;
7444;SDS011;3764;48.126;11.594;2023-01-05T07:09:14;0.90;;;0.60;;
7444;SDS011;3764;48.126;11.594;2023-01-05T07:11:41;1.33;;;0.65;;
7444;SDS011;3764;48.126;11.594;2023-01-05T07:14:09;1.70;;;0.60;;
7444;SDS011;3764;48.126;11.594;2023-01-05T07:16:37;3.03;;;0.75;;
7444;SDS011;3764;48.126;11.594;2023-01-05T07:19:04;0.90;;;0.60;;
7444;SDS011;3764;48.126;11.594;2023-01-05T07:21:31;1.20;;;0.70;;
7444;SDS011;3764;48.126;11.594;2023-01-05T07:23:58;1.05;;;0.70;;
7444;SDS011;3764;48.126;11.594;2023-01-05T07:26:25;1.27;;;0.60;;
7444;SDS011;3764;48.126;11.594;2023-01-05T07:28:52;1.00;;;0.70;;
7444;SDS011;3764;48.126;11.594;2023-01-05T07:31:20;1.05;;;0.57;;
7444;SDS011;3764;48.126;11.594;2023-01-05T07:33:48;1.20;;;0.63;;
7444;SDS011;3764;48.126;11.594;2023-01-05T07:36:15;2.35;;;0.82;;
7444;SDS011;3764;48.126;11.594;2023-01-05T07:38:42;1.30;;;0.75;;
7444;SDS011;3764;48.126;11.594;2023-01-05T07:41:09;0.90;;;0.60;;
7444;SDS011;3764;48.126;11.594;2023-01-05T07:43:36;1.13;;;0.63;;
7444;SDS011;3764;48.126;11.594;2023-01-05T07:46:04;1.13;;;0.70;;
7444;SDS011;3764;48.126;11.594;2023-01-05T07:48:31;1.00;;;0.75;;
7444;SDS011;3764;48.126;11.594;2023-01-05T07:50:59;1.00;;;0.60;;
7444;SDS011;3764;48.126;11.594;2023-01-05T07:53:28;1.65;;;1.10;;
7444;SDS011;3764;48.126;11.594;2023-01-05T07:55:55;1.13;;;0.73;;
7444;SDS011;3764;48.126;11.594;2023-01-05T07:58:23;1.10;;;0.65;;
7444;SDS011;3764;48.126;11.594;2023-01-05T08:00:50;1.60;;;0.73;;
7444;SDS011;3764;48.126;11.594;2023-01-05T08:03:17;1.45;;;0.60;;
7444;SDS011;3764;48.126;11.594;2023-01-05T08:05:45;1.15;;;0.65;;
7444;SDS011;3764;48.126;11.594;2023-01-05T08:08:14;3.08;;;0.63;;
7444;SDS011;3764;48.126;11.594;2023-01-05T08:10:41;1.70;;;0.98;;
7444;SDS011;3764;48.126;11.594;2023-01-05T08:13:09;1.58;;;0.88;;
7444;SDS011;3764;48.126;11.594;2023-01-05T08:15:55;0.95;;;0.82;;
7444;SDS011;3764;48.126;11.594;2023-01-05T08:18:24;0.90;;;0.68;;
7444;SDS011;3764;48.126;11.594;2023-01-05T08:20:52;1.10;;;0.70;;
7444;SDS011;3764;48.126;11.594;2023-01-05T08:23:23;1.00;;;0.60;;
7444;SDS011;3764;48.126;11.594;2023-01-05T08:25:50;1.00;;;0.60;;
7444;SDS011;3764;48.126;11.594;2023-01-05T08:28:18;1.10;;;0.60;;
7444;SDS011;3764;48.126;11.594;2023-01-05T08:30:45;1.27;;;0.60;;
7444;SDS011;3764;48.126;11.594;2023-01-05T08:33:12;0.90;;;0.60;;
7444;SDS011;3764;48.126;11.594;2023-01-05T08:35:39;1.30;;;1.13;;
7444;SDS011;3764;48.126;11.594;2023-01-05T08:38:07;0.90;;;0.50;;
7444;SDS011;3764;48.126;11.594;2023-01-05T08:40:36;1.13;;;0.80;;
7444;SDS011;3764;48.126;11.594;2023-01-05T08:43:04;2.30;;;1.00;;
7444;SDS011;3764;48.126;11.594;2023-01-05T08:45:31;0.98;;;0.60;;
7444;SDS011;3764;48.126;11.594;2023-01-05T08:48:00;1.10;;;0.88;;
7444;SDS011;3764;48.126;11.594;2023-01-05T08:50:27;1.00;;;0.70;;
7444;SDS011;3764;48.126;11.594;2023-01-05T08:52:54;1.40;;;0.70;;
7444;SDS011;3764;48.126;11.594;2023-01-05T08:55:21;2.08;;;0.68;;
7444;SDS011;3764;48.126;11.594;2023-01-05T08:57:50;1.00;;;0.60;;
7444;SDS011;3764;48.126;11.594;2023-01-05T09:00:17;2.47;;;1.75;;
7444;SDS011;3764;48.126;11.594;2023-01-05T09:02:46;1.50;;;1.10;;
7444;SDS011;3764;48.126;11.594;2023-01-05T09:05:13;1.33;;;0.60;;
7444;SDS011;3764;48.126;11.594;2023-01-05T09:07:41;1.30;;;0.70;;
7444;SDS011;3764;48.126;11.594;2023-01-05T09:10:09;2.17;;;0.70;;
7444;SDS011;3764;48.126;11.594;2023-01-05T09:12:37;1.17;;;0.60;;
7444;SDS011;3764;48.126;11.594;2023-01-05T09:15:06;1.77;;;0.90;;
7444;SDS011;3764;48.126;11.594;2023-01-05T09:17:33;1.10;;;0.70;;
7444;SDS011;3764;48.126;11.594;2023-01-05T09:20:02;1.00;;;0.60;;
7444;SDS011;3764;48.126;11.594;2023-01-05T09:22:31;0.90;;;0.60;;
7444;SDS011;3764;48.126;11.594;2023-01-05T09:25:00;0.93;;;0.50;;
7444;SDS011;3764;48.126;11.594;2023-01-05T09:27:27;1.67;;;0.75;;
7444;SDS011;3764;48.126;11.594;2023-01-05T09:29:54;1.30;;;0.60;;
7444;SDS011;3764;48.126;11.594;2023-01-05T09:32:23;1.23;;;0.75;;
7444;SDS011;3764;48.126;11.594;2023-01-05T09:34:50;1.50;;;0.90;;
7444;SDS011;3764;48.126;11.594;2023-01-05T09:37:17;0.90;;;0.50;;
7444;SDS011;3764;48.126;11.594;2023-01-05T09:39:45;1.20;;;0.70;;
7444;SDS011;3764;48.126;11.594;2023-01-05T09:42:13;1.98;;;0.70;;
7444;SDS011;3764;48.126;11.594;2023-01-05T09:44:43;1.10;;;0.60;;
7444;SDS011;3764;48.126;11.594;2023-01-05T09:47:14;1.30;;;0.70;;
7444;SDS011;3764;48.126;11.594;2023-01-05T09:49:48;1.00;;;0.60;;
7444;SDS011;3764;48.126;11.594;2023-01-05T09:52:17;1.00;;;0.68;;
7444;SDS011;3764;48.126;11.594;2023-01-05T09:54:46;0.90;;;0.50;;
7444;SDS011;3764;48.126;11.594;2023-01-05T09:57:14;0.90;;;0.50;;
7444;SDS011;3764;48.126;11.594;2023-01-05T09:59:44;1.20;;;0.65;;
7444;SDS011;3764;48.126;11.594;2023-01-05T10:02:16;0.98;;;0.60;;
7444;SDS011;3764;48.126;11.594;2023-01-05T10:04:51;1.00;;;0.60;;
7444;SDS011;3764;48.126;11.594;2023-01-05T10:07:22;1.10;;;0.60;;
7444;SDS011;3764;48.126;11.594;2023-01-05T10:09:57;1.00;;;0.60;;
7444;SDS011;3764;48.126;11.594;2023-01-05T10:12:30;1.77;;;1.20;;
7444;SDS011;3764;48.126;11.594;2023-01-05T10:15:20;1.90;;;0.85;;
7444;SDS011;3764;48.126;11.594;2023-01-05T10:17:47;1.00;;;0.60;;
7444;SDS011;3764;48.126;11.594;2023-01-05T10:20:17;0.95;;;0.60;;
7444;SDS011;3764;48.126;11.594;2023-01-05T10:22:54;1.00;;;0.60;;
7444;SDS011;3764;48.126;11.594;2023-01-05T10:25:31;1.38;;;0.70;;
7444;SDS011;3764;48.126;11.594;2023-01-05T10:28:08;1.10;;;0.60;;
7444;SDS011;3764;48.126;11.594;2023-01-05T10:30:53;1.42;;;0.60;;
7444;SDS011;3764;48.126;11.594;2023-01-05T10:33:28;2.05;;;0.70;;
7444;SDS011;3764;48.126;11.594;2023-01-05T10:36:11;1.20;;;0.60;;
7444;SDS011;3764;48.126;11.594;2023-01-05T10:38:50;1.23;;;0.68;;
7444;SDS011;3764;48.126;11.594;2023-01-05T10:41:23;4.63;;;0.70;;
7444;SDS011;3764;48.126;11.594;2023-01-05T10:47:09;1.73;;;0.80;;
7444;SDS011;3764;48.126;11.594;2023-01-05T10:49:38;1.00;;;0.57;;
7444;SDS011;3764;48.126;11.594;2023-01-05T10:52:10;1.35;;;0.60;;
7444;SDS011;3764;48.126;11.594;2023-01-05T10:54:42;1.23;;;0.75;;
7444;SDS011;3764;48.126;11.594;2023-01-05T10:59:58;1.52;;;0.93;;
7444;SDS011;3764;48.126;11.594;2023-01-05T11:02:27;1.15;;;0.70;;
7444;SDS011;3764;48.126;11.594;2023-01-05T11:04:58;1.67;;;0.73;;
7444;SDS011;3764;48.126;11.594;2023-01-05T11:07:30;0.90;;;0.70;;
7444;SDS011;3764;48.126;11.594;2023-01-05T11:09:58;1.00;;;0.60;;
7444;SDS011;3764;48.126;11.594;2023-01-05T11:12:25;1.10;;;0.70;;
7444;SDS011;3764;48.126;11.594;2023-01-05T11:14:53;1.08;;;0.60;;
7444;SDS011;3764;48.126;11.594;2023-01-05T11:17:23;1.00;;;0.60;;
7444;SDS011;3764;48.126;11.594;2023-01-05T11:19:52;2.13;;;0.70;;
7444;SDS011;3764;48.126;11.594;2023-01-05T11:22:28;3.50;;;0.98;;
7444;SDS011;3764;48.126;11.594;2023-01-05T11:25:12;1.25;;;0.60;;
7444;SDS011;3764;48.126;11.594;2023-01-05T11:28:05;1.00;;;0.60;;
7444;SDS011;3764;48.126;11.594;2023-01-05T11:30:35;1.40;;;0.60;;
7444;SDS011;3764;48.126;11.594;2023-01-05T11:33:10;0.90;;;0.50;;
7444;SDS011;3764;48.126;11.594;2023-01-05T11:35:38;2.10;;;0.60;;
7444;SDS011;3764;48.126;11.594;2023-01-05T11:38:12;1.63;;;0.70;;
7444;SDS011;3764;48.126;11.594;2023-01-05T11:40:47;1.10;;;0.60;;
7444;SDS011;3764;48.126;11.594;2023-01-05T11:43:14;0.98;;;0.52;;
7444;SDS011;3764;48.126;11.594;2023-01-05T11:45:45;0.90;;;0.50;;
7444;SDS011;3764;48.126;11.594;2023-01-05T11:48:17;0.90;;;0.63;;
7444;SDS011;3764;48.126;11.594;2023-01-05T11:50:47;1.20;;;0.60;;
7444;SDS011;3764;48.126;11.594;2023-01-05T11:53:24;1.70;;;0.70;;
7444;SDS011;3764;48.126;11.594;2023-01-05T11:56:02;2.75;;;0.60;;
7444;SDS011;3764;48.126;11.594;2023-01-05T11:58:31;0.90;;;0.60;;
7444;SDS011;3764;48.126;11.594;2023-01-05T12:01:04;1.20;;;0.70;;
7444;SDS011;3764;48.126;11.594;2023-01-05T12:04:00;1.10;;;0.60;;
7444;SDS011;3764;48.126;11.594;2023-01-05T12:06:37;1.00;;;0.60;;
7444;SDS011;3764;48.126;11.594;2023-01-05T12:09:21;1.65;;;0.68;;
7444;SDS011;3764;48.126;11.594;2023-01-05T12:12:05;1.48;;;0.70;;
7444;SDS011;3764;48.126;11.594;2023-01-05T12:17:49;1.20;;;0.75;;
7444;SDS011;3764;48.126;11.594;2023-01-05T12:20:28;1.45;;;0.70;;
7444;SDS011;3764;48.126;11.594;2023-01-05T12:26:14;1.80;;;0.95;;
7444;SDS011;3764;48.126;11.594;2023-01-05T12:28:52;1.30;;;0.80;;
7444;SDS011;3764;48.126;11.594;2023-01-05T12:31:39;1.45;;;0.95;;
7444;SDS011;3764;48.126;11.594;2023-01-05T12:34:27;1.30;;;0.90;;
7444;SDS011;3764;48.126;11.594;2023-01-05T12:37:09;1.23;;;0.80;;
7444;SDS011;3764;48.126;11.594;2023-01-05T12:40:00;0.93;;;0.73;;
7444;SDS011;3764;48.126;11.594;2023-01-05T12:43:06;1.30;;;0.90;;
7444;SDS011;3764;48.126;11.594;2023-01-05T12:45:39;1.20;;;0.70;;
7444;SDS011;3764;48.126;11.594;2023-01-05T12:48:24;1.00;;;0.80;;
7444;SDS011;3764;48.126;11.594;2023-01-05T12:50:56;2.00;;;0.85;;
7444;SDS011;3764;48.126;11.594;2023-01-05T12:53:30;1.20;;;0.70;;
7444;SDS011;3764;48.126;11.594;2023-01-05T12:56:08;1.10;;;0.70;;
7444;SDS011;3764;48.126;11.594;2023-01-05T12:58:48;1.08;;;0.80;;
7444;SDS011;3764;48.126;11.594;2023-01-05T13:01:26;1.50;;;0.90;;
7444;SDS011;3764;48.126;11.594;2023-01-05T13:03:57;1.00;;;0.77;;
7444;SDS011;3764;48.126;11.594;2023-01-05T13:06:30;1.30;;;1.02;;
7444;SDS011;3764;48.126;11.594;2023-01-05T13:09:02;5.78;;;0.93;;
7444;SDS011;3764;48.126;11.594;2023-01-05T13:11:35;1.63;;;0.82;;
7444;SDS011;3764;48.126;11.594;2023-01-05T13:14:08;1.52;;;0.95;;
7444;SDS011;3764;48.126;11.594;2023-01-05T13:16:42;1.02;;;0.85;;
7444;SDS011;3764;48.126;11.594;2023-01-05T13:19:13;2.50;;;0.70;;
7444;SDS011;3764;48.126;11.594;2023-01-05T13:21:46;1.08;;;0.60;;
7444;SDS011;3764;48.126;11.594;2023-01-05T13:24:14;1.20;;;0.80;;
7444;SDS011;3764;48.126;11.594;2023-01-05T13:26:47;1.10;;;0.80;;
7444;SDS011;3764;48.126;11.594;2023-01-05T13:29:19;1.00;;;0.70;;
7444;SDS011;3764;48.126;11.594;2023-01-05T13:31:57;1.10;;;0.80;;
7444;SDS011;3764;48.126;11.594;2023-01-05T13:37:50;4.10;;;1.50;;
7444;SDS011;3764;48.126;11.594;2023-01-05T13:40:44;1.92;;;1.40;;
7444;SDS011;3764;48.126;11.594;2023-01-05T13:43:29;1.75;;;1.02;;
7444;SDS011;3764;48.126;11.594;2023-01-05T13:46:40;1.40;;;0.90;;
7444;SDS011;3764;48.126;11.594;2023-01-05T13:52:34;4.50;;;1.20;;
7444;SDS011;3764;48.126;11.594;2023-01-05T13:55:14;1.10;;;0.90;;
7444;SDS011;3764;48.126;11.594;2023-01-05T13:57:44;1.48;;;1.15;;
7444;SDS011;3764;48.126;11.594;2023-01-05T14:00:20;1.40;;;1.10;;
7444;SDS011;3764;48.126;11.594;2023-01-05T14:02:59;1.48;;;1.10;;
7444;SDS011;3764;48.126;11.594;2023-01-05T14:05:35;1.38;;;0.98;;
7444;SDS011;3764;48.126;11.594;2023-01-05T14:08:15;1.45;;;1.00;;
7444;SDS011;3764;48.126;11.594;2023-01-05T14:19:22;1.60;;;1.00;;
7444;SDS011;3764;48.126;11.594;2023-01-05T14:21:58;1.73;;;1.15;;
7444;SDS011;3764;48.126;11.594;2023-01-05T14:24:46;1.35;;;1.15;;
7444;SDS011;3764;48.126;11.594;2023-01-05T14:27:14;3.15;;;1.25;;
7444;SDS011;3764;48.126;11.594;2023-01-05T14:32:29;2.65;;;1.33;;
7444;SDS011;3764;48.126;11.594;2023-01-05T14:35:01;3.22;;;1.30;;
7444;SDS011;3764;48.126;11.594;2023-01-05T14:37:34;1.58;;;1.15;;
7444;SDS011;3764;48.126;11.594;2023-01-05T14:40:14;2.13;;;1.70;;
7444;SDS011;3764;48.126;11.594;2023-01-05T14:42:50;2.10;;;1.30;;
7444;SDS011;3764;48.126;11.594;2023-01-05T14:45:21;1.42;;;1.20;;
7444;SDS011;3764;48.126;11.594;2023-01-05T14:47:53;1.10;;;0.90;;
7444;SDS011;3764;48.126;11.594;2023-01-05T14:50:27;3.30;;;1.50;;
7444;SDS011;3764;48.126;11.594;2023-01-05T14:52:58;1.70;;;1.10;;
7444;SDS011;3764;48.126;11.594;2023-01-05T14:55:28;2.45;;;1.30;;
7444;SDS011;3764;48.126;11.594;2023-01-05T14:57:56;1.55;;;1.10;;
7444;SDS011;3764;48.126;11.594;2023-01-05T15:00:34;3.70;;;2.10;;
7444;SDS011;3764;48.126;11.594;2023-01-05T15:03:16;8.05;;;3.00;;
7444;SDS011;3764;48.126;11.594;2023-01-05T15:05:56;5.40;;;2.35;;
7444;SDS011;3764;48.126;11.594;2023-01-05T15:08:33;3.45;;;2.25;;
7444;SDS011;3764;48.126;11.594;2023-01-05T15:11:35;1.92;;;1.38;;
7444;SDS011;3764;48.126;11.594;2023-01-05T15:14:40;3.30;;;1.02;;
7444;SDS011;3764;48.126;11.594;2023-01-05T15:20:40;4.03;;;1.25;;
7444;SDS011;3764;48.126;11.594;2023-01-05T15:23:55;1.90;;;0.90;;
7444;SDS011;3764;48.126;11.594;2023-01-05T15:27:00;2.67;;;1.17;;
7444;SDS011;3764;48.126;11.594;2023-01-05T15:29:48;2.90;;;1.05;;
7444;SDS011;3764;48.126;11.594;2023-01-05T15:32:25;4.63;;;1.55;;
7444;SDS011;3764;48.126;11.594;2023-01-05T15:34:55;5.53;;;1.42;;
7444;SDS011;3764;48.126;11.594;2023-01-05T15:37:32;3.88;;;1.33;;
7444;SDS011;3764;48.126;11.594;2023-01-05T15:40:01;1.17;;;0.90;;
7444;SDS011;3764;48.126;11.594;2023-01-05T15:42:32;3.03;;;1.00;;
7444;SDS011;3764;48.126;11.594;2023-01-05T15:45:04;1.95;;;1.10;;
7444;SDS011;3764;48.126;11.594;2023-01-05T15:47:35;5.82;;;2.97;;
7444;SDS011;3764;48.126;11.594;2023-01-05T15:50:04;2.92;;;1.83;;
7444;SDS011;3764;48.126;11.594;2023-01-05T15:52:42;3.28;;;0.90;;
7444;SDS011;3764;48.126;11.594;2023-01-05T15:55:18;1.70;;;1.60;;
7444;SDS011;3764;48.126;11.594;2023-01-05T15:57:50;1.23;;;1.05;;
7444;SDS011;3764;48.126;11.594;2023-01-05T16:00:20;8.65;;;1.50;;
7444;SDS011;3764;48.126;11.594;2023-01-05T16:02:49;3.72;;;1.38;;
7444;SDS011;3764;48.126;11.594;2023-01-05T16:05:17;4.95;;;1.50;;
7444;SDS011;3764;48.126;11.594;2023-01-05T16:07:49;3.35;;;1.10;;
7444;SDS011;3764;48.126;11.594;2023-01-05T16:10:21;2.15;;;1.45;;
7444;SDS011;3764;48.126;11.594;2023-01-05T16:12:54;1.98;;;1.45;;
7444;SDS011;3764;48.126;11.594;2023-01-05T16:15:24;3.20;;;1.45;;
7444;SDS011;3764;48.126;11.594;2023-01-05T16:17:52;3.50;;;1.40;;